createdAt,value
2019-05-12T00:01:28.553Z,1.75
2019-05-12T00:03:58.398Z,2.10
2019-05-12T00:06:28.453Z,2.35
2019-05-12T00:08:59.451Z,1.98
2019-05-12T00:11:28.947Z,1.65
2019-05-12T00:13:59.414Z,1.42
2019-05-12T00:16:28.866Z,2.12
2019-05-12T00:18:58.723Z,1.40
2019-05-12T00:21:28.482Z,1.72
2019-05-12T00:24:11.011Z,2.12
2019-05-12T00:26:42.374Z,1.80
2019-05-12T00:29:11.797Z,1.50
2019-05-12T00:31:42.792Z,1.55
2019-05-12T00:34:12.296Z,1.75
2019-05-12T00:36:41.837Z,1.42
2019-05-12T00:39:11.346Z,1.80
2019-05-12T00:41:42.737Z,1.65
2019-05-12T00:44:11.889Z,1.72
2019-05-12T00:46:41.324Z,1.77
2019-05-12T00:49:10.773Z,1.20
2019-05-12T00:51:40.291Z,1.85
2019-05-12T00:54:09.743Z,1.45
2019-05-12T00:56:39.464Z,1.87
2019-05-12T00:59:08.952Z,1.50
2019-05-12T01:01:38.358Z,1.70
2019-05-12T01:04:08.833Z,1.50
2019-05-12T01:06:38.883Z,1.70
2019-05-12T01:09:09.045Z,1.40
2019-05-12T01:11:38.723Z,1.72
2019-05-12T01:14:08.738Z,1.98
2019-05-12T01:16:38.773Z,1.57
2019-05-12T01:19:08.511Z,2.02
2019-05-12T01:21:38.012Z,1.75
2019-05-12T01:24:09.101Z,1.98
2019-05-12T01:26:39.031Z,2.10
2019-05-12T01:29:08.709Z,1.50
2019-05-12T01:31:39.888Z,1.82
2019-05-12T01:34:09.848Z,1.98
2019-05-12T01:36:40.687Z,1.70
2019-05-12T01:39:10.148Z,2.10
2019-05-12T01:41:39.586Z,1.77
2019-05-12T01:44:09.087Z,1.77
2019-05-12T01:46:38.543Z,2.20
2019-05-12T01:49:08.379Z,1.95
2019-05-12T01:51:38.598Z,1.90
2019-05-12T01:54:13.891Z,1.95
2019-05-12T01:56:39.179Z,1.87
2019-05-12T01:59:08.613Z,1.67
2019-05-12T02:01:38.973Z,1.87
2019-05-12T02:04:08.642Z,1.70
2019-05-12T02:06:38.821Z,2.15
2019-05-12T02:09:15.581Z,2.15
2019-05-12T02:11:45.038Z,1.82
2019-05-12T02:14:14.488Z,2.30
2019-05-12T02:16:43.947Z,1.90
2019-05-12T02:19:13.398Z,2.22
2019-05-12T02:21:42.863Z,1.80
2019-05-12T02:24:24.420Z,2.08
2019-05-12T02:26:43.362Z,3.17
2019-05-12T02:29:12.801Z,2.10
2019-05-12T02:31:42.319Z,2.40
2019-05-12T02:34:15.289Z,2.70
2019-05-12T02:36:44.790Z,2.75
2019-05-12T02:39:14.922Z,2.67
2019-05-12T02:41:46.087Z,2.40
2019-05-12T02:44:15.519Z,2.33
2019-05-12T02:46:44.995Z,3.05
2019-05-12T02:49:15.518Z,2.30
2019-05-12T02:51:47.078Z,2.42
2019-05-12T02:54:17.973Z,2.27
2019-05-12T02:56:49.640Z,2.58
2019-05-12T02:59:20.882Z,3.02
2019-05-12T03:01:55.105Z,2.30
2019-05-12T03:04:30.022Z,2.10
2019-05-12T03:07:06.392Z,2.30
2019-05-12T03:09:35.188Z,2.55
2019-05-12T03:12:06.118Z,2.15
2019-05-12T03:14:40.666Z,2.60
2019-05-12T03:17:06.900Z,2.10
2019-05-12T03:19:36.394Z,2.37
2019-05-12T03:22:18.209Z,2.40
2019-05-12T03:25:06.517Z,2.25
2019-05-12T03:27:18.754Z,2.33
2019-05-12T03:29:48.203Z,2.33
2019-05-12T03:32:18.204Z,2.55
2019-05-12T03:34:47.935Z,2.20
2019-05-12T03:37:18.302Z,2.05
2019-05-12T03:39:48.373Z,2.37
2019-05-12T03:42:17.844Z,1.92
2019-05-12T03:44:47.289Z,2.42
2019-05-12T03:47:16.723Z,2.20
2019-05-12T03:49:46.181Z,2.02
2019-05-12T03:52:15.627Z,2.10
2019-05-12T03:54:46.150Z,2.25
2019-05-12T03:57:15.580Z,2.30
2019-05-12T03:59:45.158Z,2.08
2019-05-12T04:02:15.159Z,2.50
2019-05-12T04:04:45.442Z,2.27
2019-05-12T04:07:15.469Z,2.40
2019-05-12T04:09:45.215Z,1.87
2019-05-12T04:12:15.827Z,1.95
2019-05-12T04:14:45.267Z,1.98
2019-05-12T04:17:15.075Z,2.00
2019-05-12T04:19:44.877Z,2.40
2019-05-12T04:22:15.365Z,1.90
2019-05-12T04:27:56.108Z,2.00
2019-05-12T04:30:25.655Z,2.12
2019-05-12T04:32:55.451Z,2.60
2019-05-12T04:35:25.558Z,2.00
2019-05-12T04:41:20.017Z,1.85
2019-05-12T04:43:49.480Z,2.17
2019-05-12T04:49:45.145Z,2.67
2019-05-12T04:52:15.583Z,2.20
2019-05-12T04:54:45.174Z,1.90
2019-05-12T05:00:50.628Z,2.00
2019-05-12T05:03:20.099Z,1.87
2019-05-12T05:09:37.822Z,1.62
2019-05-12T05:12:07.364Z,1.85
2019-05-12T05:18:13.394Z,1.45
2019-05-12T05:24:07.018Z,2.25
2019-05-12T05:26:37.457Z,1.47
2019-05-12T05:29:07.175Z,1.80
2019-05-12T05:31:36.904Z,1.60
2019-05-12T05:34:07.590Z,1.80
2019-05-12T05:36:37.160Z,2.00
2019-05-12T05:39:07.439Z,1.80
2019-05-12T05:41:40.096Z,1.67
2019-05-12T05:44:08.065Z,1.87
2019-05-12T05:50:29.330Z,1.72
2019-05-12T05:56:19.303Z,1.32
2019-05-12T05:58:51.939Z,1.30
2019-05-12T06:01:19.874Z,1.72
2019-05-12T06:03:49.296Z,1.55
2019-05-12T06:06:18.720Z,1.12
2019-05-12T06:08:57.112Z,1.70
2019-05-12T06:11:28.326Z,1.27
2019-05-12T06:14:03.151Z,1.17
2019-05-12T06:16:28.971Z,1.20
2019-05-12T06:18:59.631Z,1.50
2019-05-12T06:21:33.442Z,1.30
2019-05-12T06:24:00.128Z,1.50
2019-05-12T06:26:34.875Z,1.32
2019-05-12T06:29:00.703Z,1.52
2019-05-12T06:31:30.201Z,1.30
2019-05-12T06:34:00.721Z,1.15
2019-05-12T06:36:33.989Z,1.22
2019-05-12T06:39:04.561Z,1.20
2019-05-12T06:41:34.104Z,1.10
2019-05-12T06:44:09.004Z,1.10
2019-05-12T06:46:35.752Z,0.93
2019-05-12T06:49:12.639Z,1.15
2019-05-12T06:51:36.351Z,1.10
2019-05-12T06:54:10.541Z,0.80
2019-05-12T06:56:36.873Z,0.82
2019-05-12T06:59:10.313Z,1.10
2019-05-12T07:01:37.390Z,1.50
2019-05-12T07:04:10.010Z,1.10
2019-05-12T07:06:37.974Z,1.00
2019-05-12T07:09:09.803Z,0.93
2019-05-12T07:11:44.912Z,1.00
2019-05-12T07:14:21.377Z,1.20
2019-05-12T07:16:43.747Z,1.00
2019-05-12T07:19:21.154Z,0.85
2019-05-12T07:21:45.170Z,1.07
2019-05-12T07:24:14.611Z,0.98
2019-05-12T07:26:44.308Z,1.07
2019-05-12T07:29:15.203Z,0.90
2019-05-12T07:31:44.707Z,1.00
2019-05-12T07:34:14.171Z,1.02
2019-05-12T07:36:45.635Z,1.20
2019-05-12T07:39:18.687Z,1.30
2019-05-12T07:41:52.245Z,1.00
2019-05-12T07:47:59.415Z,1.10
2019-05-12T07:50:28.070Z,0.90
2019-05-12T07:53:09.419Z,1.35
2019-05-12T07:55:39.680Z,1.10
2019-05-12T07:58:17.690Z,1.00
2019-05-12T08:00:41.020Z,1.00
2019-05-12T08:03:16.267Z,0.88
2019-05-12T08:05:43.879Z,1.10
2019-05-12T08:08:14.489Z,0.90
2019-05-12T08:10:44.520Z,1.07
2019-05-12T08:13:14.796Z,1.25
2019-05-12T08:15:49.352Z,0.95
2019-05-12T08:18:16.406Z,1.20
2019-05-12T08:20:45.879Z,1.22
2019-05-12T08:23:15.331Z,0.85
2019-05-12T08:25:44.771Z,1.42
2019-05-12T08:28:18.225Z,0.90
2019-05-12T08:30:51.831Z,1.22
2019-05-12T08:33:16.431Z,1.37
2019-05-12T08:35:45.904Z,2.83
2019-05-12T08:38:15.341Z,1.77
2019-05-12T08:40:50.964Z,1.20
2019-05-12T08:43:16.337Z,1.30
2019-05-12T08:45:45.811Z,1.25
2019-05-12T08:48:21.448Z,0.85
2019-05-12T08:54:09.291Z,0.82
2019-05-12T08:56:38.755Z,0.90
2019-05-12T08:59:09.546Z,0.98
2019-05-12T09:01:39.306Z,0.72
2019-05-12T09:04:12.116Z,0.60
2019-05-12T09:06:40.279Z,0.88
2019-05-12T09:09:09.806Z,0.85
2019-05-12T09:11:39.255Z,0.70
2019-05-12T09:14:08.711Z,0.60
2019-05-12T09:16:38.277Z,0.80
2019-05-12T09:19:10.062Z,1.00
2019-05-12T09:21:38.767Z,0.65
2019-05-12T09:24:08.303Z,0.80
2019-05-12T09:26:39.352Z,0.90
2019-05-12T09:29:08.802Z,0.80
2019-05-12T09:31:38.254Z,1.37
2019-05-12T09:34:11.805Z,1.05
2019-05-12T09:36:38.805Z,1.02
2019-05-12T09:39:08.326Z,0.85
2019-05-12T09:41:42.618Z,1.07
2019-05-12T09:44:08.931Z,0.98
2019-05-12T09:46:38.403Z,1.30
2019-05-12T09:49:07.835Z,1.17
2019-05-12T09:51:49.489Z,1.02
2019-05-12T09:54:18.982Z,0.70
2019-05-12T09:56:49.905Z,0.80
2019-05-12T09:59:23.091Z,0.70
2019-05-12T10:01:50.710Z,0.93
2019-05-12T10:04:20.135Z,1.05
2019-05-12T10:06:49.555Z,1.00
2019-05-12T10:09:19.750Z,0.80
2019-05-12T10:11:53.826Z,0.98
2019-05-12T10:14:20.699Z,0.60
2019-05-12T10:16:50.180Z,0.90
2019-05-12T10:19:19.618Z,0.70
2019-05-12T10:21:54.002Z,0.78
2019-05-12T10:24:20.155Z,0.98
2019-05-12T10:30:36.858Z,1.05
2019-05-12T10:33:06.755Z,0.90
2019-05-12T10:35:36.224Z,0.75
2019-05-12T10:38:10.566Z,1.02
2019-05-12T10:44:00.559Z,0.78
2019-05-12T10:46:30.051Z,0.82
2019-05-12T10:48:59.499Z,1.10
2019-05-12T10:51:28.970Z,1.17
2019-05-12T10:54:09.158Z,1.20
2019-05-12T10:56:29.547Z,1.07
2019-05-12T10:58:58.995Z,1.15
2019-05-12T11:05:04.338Z,0.82
2019-05-12T11:07:34.127Z,0.90
2019-05-12T11:13:18.076Z,0.70
2019-05-12T11:19:10.737Z,0.88
2019-05-12T11:21:40.339Z,1.00
2019-05-12T11:24:09.767Z,1.00
2019-05-12T11:26:39.223Z,1.15
2019-05-12T11:29:08.691Z,0.90
2019-05-12T11:31:38.142Z,1.32
2019-05-12T11:34:07.601Z,1.50
2019-05-12T11:36:37.055Z,1.30
2019-05-12T11:39:07.127Z,1.27
2019-05-12T11:41:36.604Z,1.40
2019-05-12T11:44:06.136Z,0.75
2019-05-12T11:46:36.412Z,1.25
2019-05-12T11:49:05.955Z,0.82
2019-05-12T11:51:35.394Z,1.15
2019-05-12T11:54:08.940Z,1.05
2019-05-12T11:56:40.327Z,1.22
2019-05-12T11:59:07.134Z,1.25
2019-05-12T12:01:39.667Z,1.40
2019-05-12T12:04:07.680Z,1.30
2019-05-12T12:06:37.142Z,1.42
2019-05-12T12:09:09.346Z,1.92
2019-05-12T12:11:38.616Z,1.90
2019-05-12T12:14:10.531Z,1.10
2019-05-12T12:16:44.320Z,1.17
2019-05-12T12:19:10.233Z,1.80
2019-05-12T12:21:40.499Z,1.50
2019-05-12T12:24:13.094Z,1.37
2019-05-12T12:26:44.260Z,1.80
2019-05-12T12:29:13.693Z,1.65
2019-05-12T12:31:50.659Z,1.12
2019-05-12T12:34:29.524Z,1.20
2019-05-12T12:36:51.319Z,1.30
2019-05-12T12:39:20.767Z,1.15
2019-05-12T12:41:56.071Z,1.32
2019-05-12T12:44:21.308Z,1.20
2019-05-12T12:46:51.270Z,1.07
2019-05-12T12:49:23.412Z,0.80
2019-05-12T12:51:52.963Z,0.95
2019-05-12T12:54:22.401Z,1.10
2019-05-12T12:56:53.464Z,1.27
2019-05-12T12:59:24.050Z,1.45
2019-05-12T13:01:53.703Z,1.22
2019-05-12T13:04:24.866Z,1.20
2019-05-12T13:06:54.442Z,1.15
2019-05-12T13:09:24.637Z,1.20
2019-05-12T13:11:54.459Z,1.37
2019-05-12T13:14:28.662Z,1.10
2019-05-12T13:16:56.229Z,1.37
2019-05-12T13:19:25.801Z,1.30
2019-05-12T13:21:55.252Z,1.25
2019-05-12T13:24:24.702Z,1.20
2019-05-12T13:26:54.157Z,1.20
2019-05-12T13:29:28.291Z,1.45
2019-05-12T13:31:55.754Z,1.02
2019-05-12T13:34:28.813Z,1.30
2019-05-12T13:36:56.275Z,1.05
2019-05-12T13:39:25.738Z,1.10
2019-05-12T13:41:56.264Z,1.20
2019-05-12T13:44:30.308Z,0.90
2019-05-12T13:46:58.910Z,1.10
2019-05-12T13:49:29.957Z,1.40
2019-05-12T13:52:00.674Z,1.40
2019-05-12T13:54:30.213Z,1.00
2019-05-12T13:57:03.743Z,1.00
2019-05-12T13:59:30.779Z,1.17
2019-05-12T14:02:00.223Z,0.90
2019-05-12T14:04:29.683Z,1.02
2019-05-12T14:06:59.141Z,0.82
2019-05-12T14:09:28.589Z,1.10
2019-05-12T14:11:58.019Z,0.93
2019-05-12T14:14:27.482Z,1.00
2019-05-12T14:16:59.244Z,1.07
2019-05-12T14:19:30.267Z,1.00
2019-05-12T14:21:59.148Z,1.20
2019-05-12T14:24:33.267Z,1.12
2019-05-12T14:26:59.642Z,1.00
2019-05-12T14:29:30.568Z,1.20
2019-05-12T14:32:03.023Z,0.93
2019-05-12T14:34:31.215Z,0.93
2019-05-12T14:37:08.369Z,1.27
2019-05-12T14:39:31.747Z,1.20
2019-05-12T14:42:01.203Z,1.30
2019-05-12T14:44:30.575Z,1.15
2019-05-12T14:47:03.539Z,1.00
2019-05-12T14:49:33.313Z,1.10
2019-05-12T14:52:03.414Z,1.12
2019-05-12T14:54:34.371Z,1.57
2019-05-12T14:57:03.981Z,0.82
2019-05-12T14:59:36.602Z,1.10
2019-05-12T15:02:06.288Z,1.10
2019-05-12T15:04:35.817Z,1.12
2019-05-12T15:07:09.829Z,0.75
2019-05-12T15:09:36.413Z,1.12
2019-05-12T15:12:05.877Z,0.82
2019-05-12T15:14:38.022Z,1.07
2019-05-12T15:17:06.423Z,0.72
2019-05-12T15:19:35.964Z,0.80
2019-05-12T15:22:11.623Z,1.42
2019-05-12T15:24:37.572Z,0.78
2019-05-12T15:27:07.002Z,1.00
2019-05-12T15:29:36.444Z,0.70
2019-05-12T15:32:05.949Z,1.00
2019-05-12T15:34:35.435Z,0.80
2019-05-12T15:37:04.901Z,1.00
2019-05-12T15:39:34.361Z,0.90
2019-05-12T15:42:04.083Z,1.32
2019-05-12T15:44:36.302Z,0.95
2019-05-12T15:47:04.668Z,1.05
2019-05-12T15:49:34.138Z,1.00
2019-05-12T15:52:03.759Z,0.98
2019-05-12T15:54:35.732Z,0.80
2019-05-12T15:57:04.725Z,1.00
2019-05-12T15:59:34.627Z,0.90
2019-05-12T16:02:13.208Z,0.80
2019-05-12T16:04:42.639Z,1.00
2019-05-12T16:07:06.356Z,0.88
2019-05-12T16:09:35.811Z,0.90
2019-05-12T16:12:18.271Z,0.93
2019-05-12T16:14:40.957Z,0.85
2019-05-12T16:17:07.459Z,0.78
2019-05-12T16:19:36.916Z,0.68
2019-05-12T16:22:06.372Z,0.88
2019-05-12T16:28:15.145Z,1.00
2019-05-12T16:30:43.466Z,0.82
2019-05-12T16:33:20.445Z,1.02
2019-05-12T16:35:44.185Z,0.90
2019-05-12T16:38:19.635Z,0.90
2019-05-12T16:40:49.578Z,0.70
2019-05-12T16:43:16.397Z,1.10
2019-05-12T16:45:45.910Z,0.85
2019-05-12T16:48:29.230Z,1.45
2019-05-12T16:50:46.447Z,0.80
2019-05-12T16:53:21.633Z,0.72
2019-05-12T16:55:49.960Z,0.82
2019-05-12T16:58:18.045Z,0.75
2019-05-12T17:00:49.381Z,1.22
2019-05-12T17:03:18.648Z,0.78
2019-05-12T17:05:50.172Z,1.12
2019-05-12T17:08:19.163Z,1.07
2019-05-12T17:10:58.372Z,1.05
2019-05-12T17:13:19.788Z,0.88
2019-05-12T17:15:55.366Z,1.20
2019-05-12T17:18:20.296Z,1.22
2019-05-12T17:20:51.056Z,1.42
2019-05-12T17:23:20.747Z,1.10
2019-05-12T17:25:50.210Z,1.10
2019-05-12T17:28:19.720Z,0.82
2019-05-12T17:30:49.253Z,1.12
2019-05-12T17:33:22.822Z,0.98
2019-05-12T17:35:49.783Z,1.10
2019-05-12T17:38:20.249Z,1.65
2019-05-12T17:40:55.747Z,1.17
2019-05-12T17:43:23.264Z,1.12
2019-05-12T17:45:56.887Z,0.80
2019-05-12T17:48:23.613Z,1.12
2019-05-12T17:50:53.953Z,1.30
2019-05-12T17:53:24.190Z,1.30
2019-05-12T17:55:56.197Z,0.60
2019-05-12T17:58:29.885Z,1.20
2019-05-12T18:00:55.954Z,1.02
2019-05-12T18:03:25.916Z,1.20
2019-05-12T18:05:56.654Z,1.12
2019-05-12T18:08:32.518Z,0.90
2019-05-12T18:10:57.167Z,1.02
2019-05-12T18:17:08.201Z,1.07
2019-05-12T18:19:33.747Z,1.00
2019-05-12T18:25:15.995Z,0.72
2019-05-12T18:27:50.542Z,0.85
2019-05-12T18:30:19.274Z,1.12
2019-05-12T18:36:14.186Z,1.10
2019-05-12T18:42:18.486Z,1.00
2019-05-12T18:44:47.951Z,0.90
2019-05-12T18:50:52.861Z,0.98
2019-05-12T18:53:29.932Z,1.12
2019-05-12T18:55:53.985Z,1.20
2019-05-12T18:58:30.569Z,1.12
2019-05-12T19:00:56.108Z,1.20
2019-05-12T19:03:47.856Z,1.20
2019-05-12T19:09:33.612Z,1.05
2019-05-12T19:12:03.050Z,1.00
2019-05-12T19:14:36.912Z,1.20
2019-05-12T19:17:03.773Z,1.45
2019-05-12T19:19:33.287Z,1.05
2019-05-12T19:25:50.656Z,1.20
2019-05-12T19:28:21.170Z,1.27
2019-05-12T19:34:20.008Z,1.20
2019-05-12T19:36:49.425Z,1.00
2019-05-12T19:39:16.258Z,1.12
2019-05-12T19:41:45.710Z,1.00
2019-05-12T19:44:20.157Z,1.10
2019-05-12T19:46:49.487Z,1.05
2019-05-12T19:49:20.165Z,1.62
2019-05-12T19:51:49.507Z,0.90
2019-05-12T20:00:24.126Z,1.10
2019-05-12T20:02:53.813Z,2.12
2019-05-12T20:05:24.471Z,1.27
2019-05-12T20:07:53.898Z,1.20
2019-05-12T20:10:24.328Z,1.35
2019-05-12T20:12:55.027Z,1.15
2019-05-12T20:15:25.184Z,1.15
2019-05-12T20:17:54.630Z,1.32
2019-05-12T20:20:28.855Z,1.65
2019-05-12T20:22:55.156Z,1.70
2019-05-12T20:25:24.706Z,1.30
2019-05-12T20:27:55.811Z,1.32
2019-05-12T20:30:28.012Z,1.12
2019-05-12T20:32:56.315Z,1.30
2019-05-12T20:35:25.775Z,1.40
2019-05-12T20:37:57.462Z,1.57
2019-05-12T20:44:17.150Z,1.67
2019-05-12T20:46:44.784Z,1.40
2019-05-12T20:53:03.752Z,1.47
2019-05-12T20:55:39.516Z,1.20
2019-05-12T21:01:30.224Z,1.30
2019-05-12T21:03:57.699Z,1.40
2019-05-12T21:09:39.335Z,1.62
2019-05-12T21:15:37.424Z,1.20
2019-05-12T21:18:07.283Z,1.60
2019-05-12T21:20:34.872Z,1.90
2019-05-12T21:23:04.327Z,2.00
2019-05-12T21:29:08.450Z,1.47
2019-05-12T21:35:15.709Z,1.40
2019-05-12T21:37:38.663Z,1.67
2019-05-12T21:40:06.172Z,1.62
2019-05-12T21:42:35.867Z,1.70
2019-05-12T21:48:29.313Z,1.95
2019-05-12T21:50:58.963Z,1.98
2019-05-12T21:53:29.574Z,1.85
2019-05-12T21:56:03.842Z,2.15
2019-05-12T21:58:30.090Z,1.85
2019-05-12T22:01:05.265Z,2.00
2019-05-12T22:03:33.442Z,1.98
2019-05-12T22:06:15.628Z,1.82
2019-05-12T22:08:34.276Z,1.82
2019-05-12T22:11:09.526Z,2.05
2019-05-12T22:13:35.143Z,1.50
2019-05-12T22:16:04.648Z,1.72
2019-05-12T22:18:34.159Z,1.37
2019-05-12T22:24:34.021Z,1.90
2019-05-12T22:26:57.706Z,1.60
2019-05-12T22:29:31.041Z,2.00
2019-05-12T22:31:58.280Z,2.02
2019-05-12T22:34:35.973Z,1.35
2019-05-12T22:36:59.280Z,1.62
2019-05-12T22:39:33.800Z,1.37
2019-05-12T22:41:59.911Z,1.85
2019-05-12T22:44:29.350Z,2.17
2019-05-12T22:47:04.204Z,1.65
2019-05-12T22:49:29.883Z,2.00
2019-05-12T22:52:02.613Z,1.87
2019-05-12T22:54:30.388Z,1.70
2019-05-12T22:56:59.762Z,1.70
2019-05-12T22:59:31.949Z,2.30
2019-05-12T23:02:00.270Z,1.50
2019-05-12T23:04:35.545Z,1.90
2019-05-12T23:07:00.774Z,1.70
2019-05-12T23:09:30.265Z,2.00
2019-05-12T23:11:59.670Z,2.10
2019-05-12T23:14:29.112Z,2.10
2019-05-12T23:17:00.028Z,1.80
2019-05-12T23:19:29.608Z,2.00
2019-05-12T23:21:59.114Z,1.80
2019-05-12T23:24:30.383Z,2.40
2019-05-12T23:26:59.579Z,2.25
2019-05-12T23:29:31.053Z,2.27
2019-05-12T23:32:00.542Z,2.20
2019-05-12T23:34:33.878Z,2.37
2019-05-12T23:37:03.852Z,2.17
2019-05-12T23:39:38.122Z,2.20
2019-05-12T23:42:04.610Z,2.22
2019-05-12T23:44:34.047Z,1.98
2019-05-12T23:47:04.286Z,2.00
2019-05-12T23:49:34.048Z,2.20
2019-05-12T23:52:03.949Z,2.37
2019-05-12T23:54:34.467Z,2.33
2019-05-12T23:57:05.343Z,2.15
2019-05-12T23:59:34.762Z,2.20
